createdAt,value
2019-05-15T00:00:49.302Z,99591.69
2019-05-15T00:03:19.559Z,99594.05
2019-05-15T00:05:45.080Z,99592.68
2019-05-15T00:08:11.557Z,99588.34
2019-05-15T00:10:38.980Z,99597.49
2019-05-15T00:13:05.966Z,99592.95
2019-05-15T00:15:32.546Z,99591.43
2019-05-15T00:17:59.049Z,99592.59
2019-05-15T00:20:25.838Z,99590.96
2019-05-15T00:22:52.371Z,99585.50
2019-05-15T00:25:19.044Z,99587.17
2019-05-15T00:27:45.555Z,99585.41
2019-05-15T00:30:12.059Z,99592.47
2019-05-15T00:32:39.344Z,99586.73
2019-05-15T00:35:06.297Z,99585.69
2019-05-15T00:37:32.862Z,99576.66
2019-05-15T00:39:59.478Z,99586.76
2019-05-15T00:42:28.352Z,99578.00
2019-05-15T00:44:54.718Z,99578.25
2019-05-15T00:47:21.269Z,99574.43
2019-05-15T00:49:48.772Z,99574.60
2019-05-15T00:52:17.926Z,99562.78
2019-05-15T00:54:44.148Z,99559.53
2019-05-15T00:57:10.645Z,99561.79
2019-05-15T00:59:38.972Z,99561.95
2019-05-15T01:02:05.675Z,99568.25
2019-05-15T01:04:32.155Z,99556.69
2019-05-15T01:06:58.990Z,99555.30
2019-05-15T01:09:25.521Z,99554.27
2019-05-15T01:11:52.483Z,99551.39
2019-05-15T01:14:19.391Z,99547.77
2019-05-15T01:16:45.882Z,99544.27
2019-05-15T01:19:14.995Z,99541.42
2019-05-15T01:21:40.873Z,99542.34
2019-05-15T01:24:08.410Z,99542.13
2019-05-15T01:26:34.935Z,99544.89
2019-05-15T01:29:01.694Z,99531.29
2019-05-15T01:31:28.669Z,99533.05
2019-05-15T01:33:55.175Z,99534.63
2019-05-15T01:36:21.640Z,99534.05
2019-05-15T01:38:48.382Z,99530.23
2019-05-15T01:41:14.870Z,99531.44
2019-05-15T01:43:41.631Z,99528.48
2019-05-15T01:46:08.538Z,99530.53
2019-05-15T01:48:35.114Z,99530.65
2019-05-15T01:51:01.597Z,99526.09
2019-05-15T01:53:29.032Z,99521.75
2019-05-15T01:55:55.684Z,99520.59
2019-05-15T01:58:22.212Z,99518.83
2019-05-15T02:00:48.699Z,99521.34
2019-05-15T02:03:15.310Z,99521.50
2019-05-15T02:05:42.050Z,99518.09
2019-05-15T02:08:08.611Z,99521.26
2019-05-15T02:10:35.212Z,99518.34
2019-05-15T02:13:01.707Z,99522.94
2019-05-15T02:15:28.702Z,99518.00
2019-05-15T02:17:55.325Z,99515.16
2019-05-15T02:20:21.820Z,99523.20
2019-05-15T02:22:49.624Z,99521.59
2019-05-15T02:25:18.406Z,99525.98
2019-05-15T02:27:44.634Z,99524.80
2019-05-15T02:30:22.100Z,99522.30
2019-05-15T02:32:40.227Z,99515.89
2019-05-15T02:35:09.966Z,99516.07
2019-05-15T02:37:35.936Z,99510.70
2019-05-15T02:40:03.142Z,99506.45
2019-05-15T02:42:29.702Z,99510.84
2019-05-15T02:44:58.694Z,99506.09
2019-05-15T02:47:28.857Z,99509.88
2019-05-15T02:49:53.805Z,99505.22
2019-05-15T02:52:20.335Z,99511.33
2019-05-15T02:54:49.817Z,99511.00
2019-05-15T02:57:15.240Z,99510.41
2019-05-15T02:59:42.145Z,99510.68
2019-05-15T03:02:10.167Z,99510.09
2019-05-15T03:04:39.815Z,99512.03
2019-05-15T03:07:05.416Z,99512.11
2019-05-15T03:09:31.930Z,99513.41
2019-05-15T03:11:58.775Z,99513.41
2019-05-15T03:14:29.008Z,99508.56
2019-05-15T03:16:54.908Z,99504.55
2019-05-15T03:19:21.520Z,99511.75
2019-05-15T03:21:49.645Z,99506.72
2019-05-15T03:24:19.419Z,99502.25
2019-05-15T03:26:45.240Z,99503.77
2019-05-15T03:29:11.709Z,99500.50
2019-05-15T03:31:56.645Z,99502.05
2019-05-15T03:34:19.299Z,99505.44
2019-05-15T03:36:35.160Z,99506.21
2019-05-15T03:39:01.827Z,99504.27
2019-05-15T03:41:29.855Z,99503.34
2019-05-15T03:43:59.504Z,99494.36
2019-05-15T03:46:29.157Z,99493.48
2019-05-15T03:48:54.592Z,99500.50
2019-05-15T03:51:21.116Z,99501.55
2019-05-15T03:53:49.779Z,99500.88
2019-05-15T03:56:19.024Z,99509.35
2019-05-15T03:58:49.083Z,99502.62
2019-05-15T04:01:28.503Z,99506.39
2019-05-15T04:03:42.838Z,99502.30
2019-05-15T04:06:10.365Z,99514.10
2019-05-15T04:08:39.163Z,99510.92
2019-05-15T04:11:05.499Z,99513.97
2019-05-15T04:13:32.916Z,99517.47
2019-05-15T04:15:59.740Z,99515.95
2019-05-15T04:18:29.196Z,99513.68
2019-05-15T04:20:55.823Z,99514.31
2019-05-15T04:23:22.883Z,99514.21
2019-05-15T04:25:50.777Z,99510.73
2019-05-15T04:28:19.350Z,99506.45
2019-05-15T04:30:46.032Z,99511.09
2019-05-15T04:33:13.100Z,99510.51
2019-05-15T04:35:40.615Z,99506.20
2019-05-15T04:38:09.311Z,99515.71
2019-05-15T04:40:35.570Z,99508.43
2019-05-15T04:43:02.088Z,99515.50
2019-05-15T04:45:34.731Z,99513.86
2019-05-15T04:47:58.781Z,99507.56
2019-05-15T04:50:28.437Z,99506.40
2019-05-15T04:52:53.906Z,99506.58
2019-05-15T04:55:20.359Z,99500.99
2019-05-15T04:57:49.958Z,99503.70
2019-05-15T05:00:20.884Z,99499.80
2019-05-15T05:02:49.690Z,99506.73
2019-05-15T05:05:18.812Z,99508.75
2019-05-15T05:07:44.421Z,99506.30
2019-05-15T05:10:11.359Z,99508.08
2019-05-15T05:12:41.888Z,99499.80
2019-05-15T05:15:08.485Z,99508.09
2019-05-15T05:17:34.751Z,99505.60
2019-05-15T05:20:02.486Z,99496.88
2019-05-15T05:22:29.129Z,99500.28
2019-05-15T05:24:55.703Z,99498.95
2019-05-15T05:27:22.224Z,99504.89
2019-05-15T05:29:48.819Z,99505.30
2019-05-15T05:32:30.444Z,99501.98
2019-05-15T05:34:44.805Z,99496.89
2019-05-15T05:37:11.408Z,99503.94
2019-05-15T05:39:39.459Z,99510.27
2019-05-15T05:42:07.864Z,99506.17
2019-05-15T05:44:34.801Z,99504.43
2019-05-15T05:47:01.269Z,99507.70
2019-05-15T05:49:28.845Z,99504.91
2019-05-15T05:51:55.422Z,99507.52
2019-05-15T05:54:21.921Z,99503.17
2019-05-15T05:56:48.511Z,99505.91
2019-05-15T05:59:14.959Z,99503.48
2019-05-15T06:01:44.099Z,99502.09
2019-05-15T06:04:09.794Z,99500.41
2019-05-15T06:06:38.453Z,99504.27
2019-05-15T06:09:05.542Z,99500.44
2019-05-15T06:11:32.289Z,99499.16
2019-05-15T06:13:59.006Z,99507.88
2019-05-15T06:16:28.379Z,99509.67
2019-05-15T06:18:54.467Z,99506.52
2019-05-15T06:21:20.976Z,99509.58
2019-05-15T06:23:54.593Z,99513.48
2019-05-15T06:26:15.883Z,99513.74
2019-05-15T06:28:42.855Z,99513.84
2019-05-15T06:31:10.443Z,99523.00
2019-05-15T06:33:38.400Z,99518.51
2019-05-15T06:36:05.100Z,99518.63
2019-05-15T06:38:31.564Z,99521.50
2019-05-15T06:40:58.426Z,99519.92
2019-05-15T06:43:24.894Z,99513.98
2019-05-15T06:45:51.648Z,99520.97
2019-05-15T06:48:18.619Z,99518.80
2019-05-15T06:50:45.163Z,99517.73
2019-05-15T06:53:11.929Z,99524.70
2019-05-15T06:55:38.966Z,99527.15
2019-05-15T06:58:05.593Z,99518.95
2019-05-15T07:00:32.209Z,99520.09
2019-05-15T07:02:58.674Z,99523.73
2019-05-15T07:05:25.291Z,99516.54
2019-05-15T07:07:51.759Z,99516.27
2019-05-15T07:10:18.983Z,99517.15
2019-05-15T07:12:48.500Z,99515.94
2019-05-15T07:15:14.384Z,99516.38
2019-05-15T07:17:41.087Z,99521.95
2019-05-15T07:20:08.752Z,99521.39
2019-05-15T07:22:35.524Z,99515.48
2019-05-15T07:25:03.420Z,99515.86
2019-05-15T07:27:30.192Z,99510.70
2019-05-15T07:29:58.368Z,99514.38
2019-05-15T07:32:25.158Z,99516.05
2019-05-15T07:34:51.929Z,99505.53
2019-05-15T07:37:19.042Z,99508.22
2019-05-15T07:39:45.837Z,99515.78
2019-05-15T07:42:12.374Z,99517.58
2019-05-15T07:44:39.082Z,99509.07
2019-05-15T07:47:05.877Z,99513.83
2019-05-15T07:49:32.428Z,99511.81
2019-05-15T07:52:00.048Z,99507.03
2019-05-15T07:54:28.739Z,99505.72
2019-05-15T07:56:54.932Z,99508.89
2019-05-15T07:59:21.404Z,99495.36
2019-05-15T08:01:48.824Z,99502.33
2019-05-15T08:04:28.558Z,99495.32
2019-05-15T08:06:44.167Z,99490.89
2019-05-15T08:09:10.671Z,99501.40
2019-05-15T08:11:39.171Z,99483.78
2019-05-15T08:14:05.569Z,99479.03
2019-05-15T08:16:33.126Z,99482.58
2019-05-15T08:18:59.613Z,99481.46
2019-05-15T08:21:26.364Z,99483.42
2019-05-15T08:23:53.130Z,99484.53
2019-05-15T08:26:19.634Z,99478.61
2019-05-15T08:28:48.521Z,99477.79
2019-05-15T08:31:14.998Z,99474.23
2019-05-15T08:33:41.481Z,99467.81
2019-05-15T08:36:08.686Z,99473.08
2019-05-15T08:38:35.206Z,99473.50
2019-05-15T08:41:01.666Z,99476.09
2019-05-15T08:43:31.426Z,99467.37
2019-05-15T08:45:58.654Z,99471.16
2019-05-15T08:48:27.624Z,99466.16
2019-05-15T08:50:53.944Z,99465.35
2019-05-15T08:53:20.457Z,99468.73
2019-05-15T08:55:48.096Z,99465.30
2019-05-15T08:58:14.653Z,99463.96
2019-05-15T09:00:44.096Z,99457.77
2019-05-15T09:03:10.371Z,99456.34
2019-05-15T09:05:38.865Z,99464.80
2019-05-15T09:08:05.765Z,99457.88
2019-05-15T09:10:32.216Z,99456.17
2019-05-15T09:12:59.121Z,99453.16
2019-05-15T09:15:29.184Z,99450.16
2019-05-15T09:18:08.025Z,99457.75
2019-05-15T09:20:23.833Z,99455.27
2019-05-15T09:22:50.306Z,99458.01
2019-05-15T09:25:19.359Z,99450.95
2019-05-15T09:27:45.450Z,99449.86
2019-05-15T09:30:12.240Z,99444.59
2019-05-15T09:32:39.392Z,99446.13
2019-05-15T09:35:08.362Z,99441.31
2019-05-15T09:37:35.118Z,99446.80
2019-05-15T09:40:01.768Z,99436.64
2019-05-15T09:42:28.698Z,99433.04
2019-05-15T09:44:55.185Z,99437.87
2019-05-15T09:47:22.005Z,99431.36
2019-05-15T09:49:48.662Z,99427.73
2019-05-15T09:52:19.121Z,99427.30
2019-05-15T09:54:43.896Z,99427.12
2019-05-15T09:57:11.077Z,99421.80
2019-05-15T09:59:48.597Z,99412.75
2019-05-15T10:02:14.428Z,99412.95
2019-05-15T10:04:40.967Z,99412.35
2019-05-15T10:07:08.239Z,99417.73
2019-05-15T10:09:35.527Z,99412.73
2019-05-15T10:12:02.146Z,99406.84
2019-05-15T10:14:29.624Z,99406.33
2019-05-15T10:16:58.395Z,99391.19
2019-05-15T10:19:24.871Z,99398.78
2019-05-15T10:21:53.498Z,99402.28
2019-05-15T10:24:20.093Z,99401.09
2019-05-15T10:26:48.896Z,99393.55
2019-05-15T10:29:16.192Z,99390.50
2019-05-15T10:31:42.761Z,99391.22
2019-05-15T10:34:09.395Z,99388.76
2019-05-15T10:36:38.504Z,99387.23
2019-05-15T10:39:08.160Z,99384.91
2019-05-15T10:41:34.095Z,99378.88
2019-05-15T10:44:00.681Z,99376.02
2019-05-15T10:46:27.123Z,99369.94
2019-05-15T10:48:54.757Z,99371.04
2019-05-15T10:51:21.463Z,99369.66
2019-05-15T10:53:48.815Z,99372.14
2019-05-15T10:56:15.493Z,99368.31
2019-05-15T10:58:41.976Z,99358.05
2019-05-15T11:01:11.333Z,99371.84
2019-05-15T11:03:39.713Z,99363.28
2019-05-15T11:06:05.836Z,99362.75
2019-05-15T11:08:32.420Z,99357.62
2019-05-15T11:10:58.978Z,99358.75
2019-05-15T11:13:25.729Z,99354.13
2019-05-15T11:15:52.236Z,99355.53
2019-05-15T11:18:18.752Z,99360.28
2019-05-15T11:20:45.373Z,99354.51
2019-05-15T11:23:15.006Z,99351.56
2019-05-15T11:25:41.981Z,99350.27
2019-05-15T11:28:08.487Z,99346.20
2019-05-15T11:30:34.989Z,99339.41
2019-05-15T11:33:02.725Z,99346.05
2019-05-15T11:35:29.336Z,99340.14
2019-05-15T11:37:57.141Z,99336.58
2019-05-15T11:40:23.925Z,99332.99
2019-05-15T11:42:50.443Z,99333.41
2019-05-15T11:45:18.524Z,99332.95
2019-05-15T11:47:48.115Z,99336.11
2019-05-15T11:50:14.202Z,99330.21
2019-05-15T11:52:40.835Z,99331.58
2019-05-15T11:55:08.364Z,99331.42
2019-05-15T11:57:42.637Z,99328.95
2019-05-15T12:00:05.280Z,99335.45
2019-05-15T12:02:31.924Z,99333.66
2019-05-15T12:05:03.330Z,99333.70
2019-05-15T12:07:30.069Z,99324.41
2019-05-15T12:09:58.026Z,99325.84
2019-05-15T12:12:24.672Z,99319.34
2019-05-15T12:14:51.136Z,99320.88
2019-05-15T12:17:19.034Z,99322.02
2019-05-15T12:19:55.057Z,99315.43
2019-05-15T12:22:16.092Z,99314.95
2019-05-15T12:24:43.721Z,99315.58
2019-05-15T12:29:39.978Z,99316.20
2019-05-15T12:32:23.561Z,99315.21
2019-05-15T12:34:35.368Z,99313.45
2019-05-15T12:37:01.829Z,99307.87
2019-05-15T12:39:30.361Z,99310.59
2019-05-15T13:01:45.356Z,99295.53
2019-05-15T13:04:11.869Z,99291.56
2019-05-15T13:06:47.799Z,99288.34
2019-05-15T13:09:08.675Z,99270.91
2019-05-15T13:11:37.710Z,99276.23
2019-05-15T13:14:04.422Z,99268.20
2019-05-15T13:16:31.025Z,99266.69
2019-05-15T13:18:58.894Z,99268.41
2019-05-15T13:21:25.428Z,99265.14
2019-05-15T13:23:53.087Z,99265.56
2019-05-15T13:26:26.209Z,99257.41
2019-05-15T13:28:48.875Z,99253.62
2019-05-15T13:31:15.489Z,99252.45
2019-05-15T13:33:41.987Z,99253.67
2019-05-15T13:36:09.060Z,99254.63
2019-05-15T13:38:38.018Z,99250.56
2019-05-15T13:41:04.621Z,99241.23
2019-05-15T13:43:31.395Z,99246.35
2019-05-15T13:45:58.142Z,99241.70
2019-05-15T13:48:24.881Z,99237.55
2019-05-15T13:50:51.354Z,99234.76
2019-05-15T13:53:18.414Z,99237.58
2019-05-15T13:55:44.973Z,99233.47
2019-05-15T13:58:20.317Z,99233.12
2019-05-15T14:00:49.080Z,99231.98
2019-05-15T14:03:15.415Z,99222.90
2019-05-15T14:05:44.992Z,99217.31
2019-05-15T14:08:11.380Z,99217.17
2019-05-15T14:10:38.560Z,99213.09
2019-05-15T14:13:05.290Z,99209.13
2019-05-15T14:15:31.816Z,99210.95
2019-05-15T14:17:58.332Z,99209.45
2019-05-15T14:20:24.780Z,99212.33
2019-05-15T14:22:51.520Z,99208.44
2019-05-15T14:25:18.540Z,99201.70
2019-05-15T14:27:45.287Z,99200.96
2019-05-15T14:30:12.319Z,99203.36
2019-05-15T14:32:39.652Z,99202.47
2019-05-15T14:35:09.097Z,99193.31
2019-05-15T14:37:36.102Z,99197.36
2019-05-15T14:40:03.399Z,99192.92
2019-05-15T14:42:30.303Z,99187.69
2019-05-15T14:44:59.101Z,99181.97
2019-05-15T14:47:26.428Z,99179.05
2019-05-15T14:49:52.974Z,99178.35
2019-05-15T14:52:19.709Z,99175.33
2019-05-15T14:54:48.833Z,99171.28
2019-05-15T14:57:14.834Z,99169.80
2019-05-15T14:59:41.504Z,99169.38
2019-05-15T15:02:09.054Z,99166.75
2019-05-15T15:04:35.702Z,99159.95
2019-05-15T15:07:02.461Z,99162.24
2019-05-15T15:09:29.065Z,99163.84
2019-05-15T15:11:55.788Z,99155.24
2019-05-15T15:14:22.484Z,99162.37
2019-05-15T15:16:49.075Z,99157.46
2019-05-15T15:19:15.620Z,99158.56
2019-05-15T15:21:42.158Z,99159.98
2019-05-15T15:24:08.881Z,99158.43
2019-05-15T15:26:35.493Z,99163.35
2019-05-15T15:29:02.331Z,99162.69
2019-05-15T15:31:29.089Z,99157.32
2019-05-15T15:33:57.854Z,99157.38
2019-05-15T15:36:24.278Z,99154.78
2019-05-15T15:38:50.755Z,99151.84
2019-05-15T15:41:17.562Z,99154.20
2019-05-15T15:43:44.083Z,99157.28
2019-05-15T15:46:10.668Z,99157.25
2019-05-15T15:48:39.017Z,99149.73
2019-05-15T15:51:08.955Z,99151.84
2019-05-15T15:53:34.921Z,99146.67
2019-05-15T15:56:01.623Z,99141.76
2019-05-15T15:58:28.949Z,99145.43
2019-05-15T16:00:56.251Z,99143.17
2019-05-15T16:03:23.810Z,99137.94
2019-05-15T16:05:51.375Z,99137.56
2019-05-15T16:08:19.079Z,99134.34
2019-05-15T16:10:48.284Z,99133.82
2019-05-15T16:13:14.722Z,99125.47
2019-05-15T16:15:41.382Z,99123.94
2019-05-15T16:18:08.843Z,99117.66
2019-05-15T16:20:35.593Z,99119.05
2019-05-15T16:23:02.966Z,99113.62
2019-05-15T16:25:29.511Z,99118.38
2019-05-15T16:27:57.802Z,99109.64
2019-05-15T16:30:24.431Z,99112.00
2019-05-15T16:32:51.134Z,99113.05
2019-05-15T16:35:18.608Z,99111.22
2019-05-15T16:37:45.322Z,99110.42
2019-05-15T16:40:13.083Z,99105.23
2019-05-15T16:42:39.638Z,99104.84
2019-05-15T16:45:09.067Z,99101.31
2019-05-15T16:47:34.854Z,99104.14
2019-05-15T16:50:01.393Z,99102.82
2019-05-15T16:52:30.833Z,99098.91
2019-05-15T16:54:58.131Z,99094.72
2019-05-15T16:57:24.915Z,99092.39
2019-05-15T16:59:51.455Z,99092.32
2019-05-15T17:02:18.828Z,99096.02
2019-05-15T17:04:45.507Z,99095.63
2019-05-15T17:07:12.275Z,99093.45
2019-05-15T17:09:39.181Z,99094.25
2019-05-15T17:12:08.555Z,99093.34
2019-05-15T17:14:34.051Z,99091.03
2019-05-15T17:17:00.720Z,99098.37
2019-05-15T17:19:29.352Z,99097.81
2019-05-15T17:21:55.852Z,99090.05
2019-05-15T17:24:22.596Z,99091.23
2019-05-15T17:26:49.050Z,99088.04
2019-05-15T17:29:15.663Z,99091.54
2019-05-15T17:31:42.408Z,99086.20
2019-05-15T17:34:08.899Z,99085.72
2019-05-15T17:36:35.353Z,99084.38
2019-05-15T17:39:01.874Z,99085.69
2019-05-15T17:41:28.730Z,99082.84
2019-05-15T17:43:55.369Z,99077.41
2019-05-15T17:46:21.952Z,99076.74
2019-05-15T17:48:55.451Z,99066.63
2019-05-15T17:51:17.756Z,99075.59
2019-05-15T17:53:44.463Z,99071.73
2019-05-15T17:56:10.976Z,99071.19
2019-05-15T17:58:38.210Z,99073.92
2019-05-15T18:01:05.090Z,99069.30
2019-05-15T18:03:31.555Z,99073.37
2019-05-15T18:05:59.044Z,99074.71
2019-05-15T18:08:28.479Z,99069.09
2019-05-15T18:10:54.583Z,99068.20
2019-05-15T18:13:21.353Z,99068.61
2019-05-15T18:15:48.928Z,99063.42
2019-05-15T18:18:15.703Z,99068.23
2019-05-15T18:20:42.221Z,99060.94
2019-05-15T18:23:08.804Z,99059.23
2019-05-15T18:25:35.524Z,99068.34
2019-05-15T18:28:04.267Z,99064.91
2019-05-15T18:30:31.340Z,99057.97
2019-05-15T18:32:58.863Z,99064.16
2019-05-15T18:35:25.603Z,99060.77
2019-05-15T18:37:53.111Z,99058.09
2019-05-15T18:40:20.081Z,99057.64
2019-05-15T18:42:49.364Z,99058.17
2019-05-15T18:45:18.280Z,99059.05
2019-05-15T18:47:44.860Z,99058.98
2019-05-15T18:50:13.584Z,99054.68
2019-05-15T18:52:40.587Z,99051.80
2019-05-15T18:55:08.067Z,99060.29
2019-05-15T18:57:34.768Z,99054.19
2019-05-15T19:00:01.551Z,99057.78
2019-05-15T19:02:28.220Z,99055.72
2019-05-15T19:04:54.726Z,99058.41
2019-05-15T19:07:21.543Z,99055.45
2019-05-15T19:09:48.545Z,99056.39
2019-05-15T19:12:15.164Z,99055.52
2019-05-15T19:14:42.095Z,99055.95
2019-05-15T19:17:08.709Z,99056.41
2019-05-15T19:19:35.412Z,99054.25
2019-05-15T19:22:02.332Z,99061.76
2019-05-15T19:24:29.038Z,99063.09
2019-05-15T19:26:55.550Z,99059.22
2019-05-15T19:29:22.191Z,99055.34
2019-05-15T19:31:49.041Z,99059.28
2019-05-15T19:34:15.571Z,99055.81
2019-05-15T19:36:42.582Z,99053.66
2019-05-15T19:39:09.383Z,99054.12
2019-05-15T19:41:38.094Z,99057.19
2019-05-15T19:44:04.852Z,99059.39
2019-05-15T19:46:31.413Z,99049.81
2019-05-15T19:48:58.294Z,99057.25
2019-05-15T19:51:24.897Z,99057.34
2019-05-15T19:53:51.573Z,99051.72
2019-05-15T19:56:18.961Z,99048.66
2019-05-15T19:58:45.589Z,99047.78
2019-05-15T20:01:12.132Z,99051.31
2019-05-15T20:03:49.337Z,99042.64
2019-05-15T20:06:08.379Z,99050.42
2019-05-15T20:08:34.956Z,99048.77
2019-05-15T20:11:01.617Z,99040.95
2019-05-15T20:13:29.073Z,99044.03
2019-05-15T20:15:57.867Z,99044.15
2019-05-15T20:18:24.271Z,99048.63
2019-05-15T20:20:50.743Z,99045.57
2019-05-15T20:23:18.417Z,99046.91
2019-05-15T20:25:45.144Z,99038.94
2019-05-15T20:28:11.607Z,99048.04
2019-05-15T20:30:38.929Z,99046.30
2019-05-15T20:33:05.455Z,99045.93
2019-05-15T20:35:32.175Z,99042.51
2019-05-15T20:37:59.760Z,99041.19
2019-05-15T20:40:26.281Z,99039.88
2019-05-15T20:42:52.907Z,99034.27
2019-05-15T20:45:19.501Z,99037.77
2019-05-15T20:47:46.265Z,99032.08
2019-05-15T20:50:12.818Z,99037.27
2019-05-15T20:52:39.829Z,99034.66
2019-05-15T20:55:07.981Z,99029.41
2019-05-15T20:57:37.584Z,99030.28
2019-05-15T21:00:04.235Z,99032.48
2019-05-15T21:02:31.771Z,99027.20
2019-05-15T21:04:58.653Z,99031.52
2019-05-15T21:07:37.913Z,99024.55
2019-05-15T21:09:55.250Z,99028.52
2019-05-15T21:12:21.732Z,99024.14
2019-05-15T21:14:48.434Z,99018.91
2019-05-15T21:17:15.544Z,99026.74
2019-05-15T21:19:42.112Z,99023.66
2019-05-15T21:22:11.065Z,99022.83
2019-05-15T21:24:37.835Z,99018.06
2019-05-15T21:27:04.505Z,99022.92
2019-05-15T21:29:32.040Z,99025.55
2019-05-15T21:31:58.557Z,99023.39
2019-05-15T21:34:36.965Z,99025.97
2019-05-15T21:36:53.647Z,99020.30
2019-05-15T21:39:21.199Z,99018.97
2019-05-15T21:41:48.884Z,99015.50
2019-05-15T21:44:15.419Z,99014.25
2019-05-15T21:46:42.199Z,99005.51
2019-05-15T21:49:08.972Z,99009.90
2019-05-15T21:51:35.563Z,99002.92
2019-05-15T21:54:02.044Z,99000.73
2019-05-15T21:56:29.620Z,98999.44
2019-05-15T21:58:58.100Z,98995.97
2019-05-15T22:01:24.791Z,99002.56
2019-05-15T22:03:52.448Z,98990.33
2019-05-15T22:06:23.350Z,98991.25
2019-05-15T22:08:52.209Z,98995.67
2019-05-15T22:11:21.912Z,98996.55
2019-05-15T22:13:48.450Z,98995.27
2019-05-15T22:16:15.373Z,98993.56
2019-05-15T22:18:42.070Z,98993.56
2019-05-15T22:21:08.631Z,98983.51
2019-05-15T22:23:35.210Z,98984.82
2019-05-15T22:26:01.882Z,98980.46
2019-05-15T22:28:28.609Z,98978.27
2019-05-15T22:30:55.088Z,98972.61
2019-05-15T22:33:21.681Z,98974.77
2019-05-15T22:35:48.928Z,98972.14
2019-05-15T22:38:15.495Z,98966.91
2019-05-15T22:40:43.911Z,98957.30
2019-05-15T22:43:10.766Z,98963.44
2019-05-15T22:45:37.823Z,98959.51
2019-05-15T22:48:04.721Z,98959.95
2019-05-15T22:50:31.336Z,98956.04
2019-05-15T22:52:58.625Z,98954.75
2019-05-15T22:55:25.501Z,98949.52
2019-05-15T22:57:52.238Z,98946.48
2019-05-15T23:00:18.868Z,98943.84
2019-05-15T23:02:45.723Z,98935.16
2019-05-15T23:05:23.884Z,98940.90
2019-05-15T23:07:40.773Z,98934.81
2019-05-15T23:10:08.884Z,98933.97
2019-05-15T23:12:35.626Z,98927.08
2019-05-15T23:15:04.238Z,98929.70
2019-05-15T23:17:30.715Z,98923.17
2019-05-15T23:19:58.197Z,98916.23
2019-05-15T23:22:24.904Z,98915.42
2019-05-15T23:24:51.364Z,98908.88
2019-05-15T23:27:18.208Z,98904.52
2019-05-15T23:29:44.728Z,98901.48
2019-05-15T23:32:11.251Z,98898.02
2019-05-15T23:34:38.637Z,98897.58
2019-05-15T23:37:05.261Z,98898.47
2019-05-15T23:39:33.074Z,98889.77
2019-05-15T23:41:59.567Z,98892.38
2019-05-15T23:44:27.650Z,98891.50
2019-05-15T23:46:54.449Z,98887.56
2019-05-15T23:49:21.177Z,98889.34
2019-05-15T23:51:48.788Z,98879.69
2019-05-15T23:54:15.395Z,98876.68
2019-05-15T23:56:41.853Z,98882.80
2019-05-15T23:59:08.597Z,98880.69
